createdAt,value
2018-06-18T00:01:22.313Z,4.40
2018-06-18T00:03:51.122Z,4.10
2018-06-18T00:06:19.840Z,4.00
2018-06-18T00:08:48.637Z,3.90
2018-06-18T00:11:17.301Z,3.90
2018-06-18T00:13:45.961Z,3.50
2018-06-18T00:16:14.841Z,4.10
2018-06-18T00:18:43.597Z,4.03
2018-06-18T00:21:12.735Z,4.20
2018-06-18T00:23:42.390Z,3.93
2018-06-18T00:26:12.387Z,4.40
2018-06-18T00:28:41.654Z,4.40
2018-06-18T00:31:10.598Z,3.60
2018-06-18T00:33:40.120Z,4.20
2018-06-18T00:36:09.038Z,4.00
2018-06-18T00:38:38.991Z,4.13
2018-06-18T00:41:07.873Z,4.00
2018-06-18T00:43:36.680Z,4.00
2018-06-18T00:46:05.727Z,3.80
2018-06-18T00:48:34.443Z,3.90
2018-06-18T00:51:03.444Z,4.17
2018-06-18T00:53:32.872Z,4.10
2018-06-18T00:56:11.905Z,4.20
2018-06-18T00:58:41.218Z,4.00
2018-06-18T01:01:10.770Z,4.30
2018-06-18T01:03:39.632Z,4.33
2018-06-18T01:06:08.952Z,4.03
2018-06-18T01:08:38.309Z,3.73
2018-06-18T01:11:07.650Z,4.23
2018-06-18T01:13:36.555Z,4.07
2018-06-18T01:16:05.622Z,4.30
2018-06-18T01:18:34.274Z,3.83
2018-06-18T01:21:03.177Z,3.83
2018-06-18T01:23:46.416Z,3.80
2018-06-18T01:26:15.153Z,4.30
2018-06-18T01:28:43.975Z,4.17
2018-06-18T01:31:13.053Z,4.37
2018-06-18T01:33:41.796Z,4.03
2018-06-18T01:36:10.984Z,3.80
2018-06-18T01:38:40.775Z,4.67
2018-06-18T01:41:10.290Z,4.03
2018-06-18T01:43:39.814Z,4.07
2018-06-18T01:46:08.781Z,3.80
2018-06-18T01:48:37.723Z,4.43
2018-06-18T01:51:07.219Z,3.97
2018-06-18T01:53:36.260Z,4.10
2018-06-18T01:56:05.165Z,4.10
2018-06-18T01:58:33.951Z,3.83
2018-06-18T02:01:03.045Z,4.10
2018-06-18T02:03:31.800Z,4.10
2018-06-18T02:06:00.811Z,4.40
2018-06-18T02:08:30.152Z,4.57
2018-06-18T02:10:59.712Z,4.27
2018-06-18T02:13:28.518Z,3.87
2018-06-18T02:15:57.536Z,4.33
2018-06-18T02:18:26.414Z,4.30
2018-06-18T02:20:55.493Z,4.40
2018-06-18T02:23:24.546Z,3.87
2018-06-18T02:25:53.456Z,4.13
2018-06-18T02:28:27.592Z,4.30
2018-06-18T02:31:01.913Z,3.93
2018-06-18T02:33:35.771Z,4.00
2018-06-18T02:36:09.772Z,4.17
2018-06-18T02:38:43.725Z,4.20
2018-06-18T02:41:12.551Z,3.80
2018-06-18T02:43:41.518Z,4.17
2018-06-18T02:46:10.561Z,4.20
2018-06-18T02:48:39.620Z,3.63
2018-06-18T02:51:08.595Z,4.40
2018-06-18T02:53:37.379Z,4.23
2018-06-18T02:56:06.969Z,3.90
2018-06-18T02:58:36.311Z,4.07
2018-06-18T03:01:05.329Z,3.97
2018-06-18T03:03:34.151Z,4.40
2018-06-18T03:06:03.432Z,3.90
2018-06-18T03:08:32.463Z,4.37
2018-06-18T03:11:02.093Z,4.00
2018-06-18T03:13:30.756Z,3.90
2018-06-18T03:15:59.933Z,3.60
2018-06-18T03:18:33.899Z,4.57
2018-06-18T03:21:07.742Z,3.87
2018-06-18T03:23:41.833Z,4.43
2018-06-18T03:26:15.766Z,3.93
2018-06-18T03:28:50.028Z,4.03
2018-06-18T03:31:19.424Z,4.70
2018-06-18T03:33:48.219Z,4.67
2018-06-18T03:36:17.265Z,4.37
2018-06-18T03:38:46.351Z,4.20
2018-06-18T03:41:15.155Z,3.97
2018-06-18T03:43:48.088Z,4.10
2018-06-18T03:46:18.015Z,4.10
2018-06-18T03:48:46.949Z,4.23
2018-06-18T03:51:16.765Z,4.00
2018-06-18T03:53:45.579Z,4.40
2018-06-18T03:56:14.561Z,4.23
2018-06-18T03:58:43.449Z,4.40
2018-06-18T04:02:29.576Z,4.20
2018-06-18T04:05:03.495Z,4.00
2018-06-18T04:08:04.642Z,4.00
2018-06-18T04:10:40.274Z,3.73
2018-06-18T04:13:09.681Z,4.03
2018-06-18T04:15:39.026Z,4.30
2018-06-18T04:18:07.781Z,3.80
2018-06-18T04:20:47.205Z,4.27
2018-06-18T04:23:16.721Z,4.90
2018-06-18T04:25:46.686Z,4.13
2018-06-18T04:28:15.557Z,4.97
2018-06-18T04:30:45.960Z,4.60
2018-06-18T04:33:16.723Z,5.23
2018-06-18T04:35:45.423Z,5.13
2018-06-18T04:38:14.771Z,4.60
2018-06-18T04:40:43.627Z,5.00
2018-06-18T04:43:17.588Z,4.70
2018-06-18T04:45:51.253Z,5.00
2018-06-18T04:48:26.178Z,5.07
2018-06-18T04:51:01.138Z,5.07
2018-06-18T04:53:30.404Z,5.33
2018-06-18T04:55:59.321Z,5.00
2018-06-18T04:58:28.916Z,5.33
2018-06-18T05:01:11.126Z,4.70
2018-06-18T05:03:40.008Z,4.90
2018-06-18T05:06:08.947Z,4.13
2018-06-18T05:10:55.124Z,4.53
2018-06-18T05:13:24.198Z,4.17
2018-06-18T05:15:54.199Z,3.40
2018-06-18T05:18:23.724Z,3.87
2018-06-18T05:20:52.886Z,3.83
2018-06-18T05:23:21.724Z,4.40
2018-06-18T05:25:56.003Z,4.50
2018-06-18T05:28:25.576Z,3.80
2018-06-18T05:30:54.745Z,3.23
2018-06-18T05:33:23.635Z,3.93
2018-06-18T05:35:53.084Z,4.07
2018-06-18T05:38:29.579Z,3.07
2018-06-18T05:40:59.787Z,3.67
2018-06-18T05:43:29.093Z,3.60
2018-06-18T05:45:58.126Z,3.57
2018-06-18T05:48:26.917Z,3.60
2018-06-18T05:50:56.098Z,3.23
2018-06-18T05:53:24.895Z,3.23
2018-06-18T05:55:54.459Z,2.87
2018-06-18T05:58:23.043Z,3.10
2018-06-18T06:00:52.069Z,2.43
2018-06-18T06:03:21.454Z,3.30
2018-06-18T06:05:50.231Z,3.03
2018-06-18T06:08:18.970Z,2.70
2018-06-18T06:10:47.716Z,3.00
2018-06-18T06:13:17.324Z,2.97
2018-06-18T06:15:47.364Z,3.03
2018-06-18T06:18:16.037Z,3.03
2018-06-18T06:20:48.153Z,3.10
2018-06-18T06:23:16.964Z,2.80
2018-06-18T06:25:45.807Z,2.90
2018-06-18T06:28:15.049Z,3.00
2018-06-18T06:30:44.022Z,2.90
2018-06-18T06:33:13.145Z,2.93
2018-06-18T06:35:43.646Z,3.03
2018-06-18T06:38:12.751Z,3.10
2018-06-18T06:40:42.031Z,2.63
2018-06-18T06:43:11.469Z,3.10
2018-06-18T06:45:41.460Z,2.80
2018-06-18T06:48:11.004Z,2.53
2018-06-18T06:50:40.083Z,2.60
2018-06-18T06:53:09.953Z,2.77
2018-06-18T06:55:38.924Z,2.40
2018-06-18T06:58:07.791Z,2.43
2018-06-18T07:00:36.903Z,2.40
2018-06-18T07:03:05.785Z,2.50
2018-06-18T07:05:34.845Z,2.37
2018-06-18T07:08:03.808Z,2.57
2018-06-18T07:10:32.667Z,2.30
2018-06-18T07:13:01.604Z,2.43
2018-06-18T07:15:30.347Z,2.60
2018-06-18T07:17:59.171Z,2.40
2018-06-18T07:20:29.839Z,2.33
2018-06-18T07:22:58.718Z,2.10
2018-06-18T07:25:28.195Z,2.20
2018-06-18T07:27:57.292Z,3.00
2018-06-18T07:30:26.512Z,2.53
2018-06-18T07:32:55.263Z,2.50
2018-06-18T07:35:24.357Z,2.90
2018-06-18T07:37:53.521Z,2.33
2018-06-18T07:40:22.680Z,2.60
2018-06-18T07:42:51.606Z,2.67
2018-06-18T07:45:20.603Z,2.20
2018-06-18T07:47:50.625Z,2.60
2018-06-18T07:50:19.283Z,2.40
2018-06-18T07:52:48.616Z,2.03
2018-06-18T07:55:18.471Z,2.13
2018-06-18T07:57:47.281Z,2.20
2018-06-18T08:00:16.326Z,2.37
2018-06-18T08:02:45.811Z,2.50
2018-06-18T08:05:14.718Z,2.40
2018-06-18T08:07:44.075Z,2.73
2018-06-18T08:10:13.006Z,2.37
2018-06-18T08:12:41.901Z,2.73
2018-06-18T08:15:11.169Z,2.70
2018-06-18T08:17:40.207Z,2.33
2018-06-18T08:20:09.442Z,2.13
2018-06-18T08:22:38.357Z,2.63
2018-06-18T08:25:07.424Z,2.20
2018-06-18T08:27:36.292Z,2.63
2018-06-18T08:30:05.171Z,2.20
2018-06-18T08:32:34.044Z,2.70
2018-06-18T08:35:03.046Z,2.57
2018-06-18T08:37:32.002Z,2.73
2018-06-18T08:40:00.839Z,2.73
2018-06-18T08:42:29.821Z,2.87
2018-06-18T08:44:58.659Z,2.40
2018-06-18T08:47:28.152Z,3.93
2018-06-18T08:50:02.903Z,3.93
2018-06-18T08:52:37.061Z,3.20
2018-06-18T08:55:11.035Z,2.50
2018-06-18T08:57:45.105Z,2.43
2018-06-18T09:00:19.032Z,2.27
2018-06-18T09:02:49.196Z,2.70
2018-06-18T09:05:22.528Z,5.40
2018-06-18T09:07:58.835Z,2.50
2018-06-18T09:10:28.372Z,2.90
2018-06-18T09:12:57.410Z,2.43
2018-06-18T09:15:26.241Z,2.50
2018-06-18T09:17:55.052Z,2.60
2018-06-18T09:20:24.066Z,2.10
2018-06-18T09:22:53.906Z,2.50
2018-06-18T09:25:23.546Z,2.72
2018-06-18T09:27:52.525Z,3.00
2018-06-18T09:30:22.104Z,2.50
2018-06-18T09:32:51.334Z,2.70
2018-06-18T09:35:20.879Z,2.40
2018-06-18T09:37:51.210Z,2.70
2018-06-18T09:40:20.357Z,2.40
2018-06-18T09:42:49.239Z,2.90
2018-06-18T09:45:18.908Z,2.30
2018-06-18T09:47:48.426Z,2.33
2018-06-18T09:51:21.266Z,2.10
2018-06-18T09:53:55.144Z,2.50
2018-06-18T09:56:29.010Z,2.57
2018-06-18T09:59:03.093Z,2.70
2018-06-18T10:01:33.084Z,2.50
2018-06-18T10:04:03.495Z,2.80
2018-06-18T10:06:34.135Z,2.50
2018-06-18T10:09:05.543Z,2.20
2018-06-18T10:11:35.071Z,2.10
2018-06-18T10:14:04.289Z,2.30
2018-06-18T10:16:32.952Z,2.40
2018-06-18T10:19:01.653Z,2.60
2018-06-18T10:21:30.641Z,2.60
2018-06-18T10:23:59.569Z,3.57
2018-06-18T10:26:28.384Z,2.90
2018-06-18T10:28:57.169Z,2.53
2018-06-18T10:31:25.803Z,2.55
2018-06-18T10:33:59.640Z,2.30
2018-06-18T10:36:33.463Z,2.72
2018-06-18T10:39:07.332Z,2.22
2018-06-18T10:41:41.230Z,2.40
2018-06-18T10:44:09.872Z,2.30
2018-06-18T10:46:38.543Z,2.45
2018-06-18T10:49:07.289Z,2.37
2018-06-18T10:51:36.269Z,2.23
2018-06-18T10:54:09.510Z,1.98
2018-06-18T10:56:38.348Z,2.40
2018-06-18T10:59:07.289Z,2.20
2018-06-18T11:01:35.926Z,2.17
2018-06-18T11:04:05.885Z,2.20
2018-06-18T11:06:37.370Z,2.00
2018-06-18T11:09:10.118Z,2.22
2018-06-18T11:11:38.963Z,2.10
2018-06-18T11:14:08.131Z,2.52
2018-06-18T11:16:37.108Z,3.20
2018-06-18T11:19:11.216Z,2.37
2018-06-18T11:21:45.219Z,1.92
2018-06-18T11:24:19.471Z,2.12
2018-06-18T11:26:54.109Z,2.70
2018-06-18T11:29:23.247Z,2.42
2018-06-18T11:31:52.415Z,2.12
2018-06-18T11:34:21.620Z,2.50
2018-06-18T11:36:50.701Z,2.17
2018-06-18T11:39:19.572Z,2.10
2018-06-18T11:41:48.652Z,2.08
2018-06-18T11:44:18.215Z,2.12
2018-06-18T11:46:47.346Z,1.90
2018-06-18T11:49:17.035Z,2.17
2018-06-18T11:51:45.986Z,2.10
2018-06-18T11:54:14.853Z,2.45
2018-06-18T11:56:43.678Z,1.92
2018-06-18T11:59:17.818Z,2.20
2018-06-18T12:01:52.345Z,2.02
2018-06-18T12:04:27.546Z,1.90
2018-06-18T12:07:01.669Z,2.10
2018-06-18T12:09:33.393Z,2.27
2018-06-18T12:12:02.233Z,2.17
2018-06-18T12:14:31.003Z,2.30
2018-06-18T12:16:59.941Z,3.42
2018-06-18T12:19:28.831Z,2.47
2018-06-18T12:21:57.767Z,2.45
2018-06-18T12:24:26.722Z,1.90
2018-06-18T12:26:55.680Z,2.05
2018-06-18T12:29:25.389Z,1.98
2018-06-18T12:31:54.045Z,2.75
2018-06-18T12:34:22.847Z,2.20
2018-06-18T12:36:51.618Z,2.08
2018-06-18T12:39:21.643Z,1.85
2018-06-18T12:41:59.503Z,1.60
2018-06-18T12:44:32.498Z,1.90
2018-06-18T12:47:06.459Z,2.10
2018-06-18T12:49:40.267Z,2.08
2018-06-18T12:52:14.096Z,2.20
2018-06-18T12:54:47.907Z,4.70
2018-06-18T12:57:16.676Z,2.00
2018-06-18T12:59:45.362Z,2.12
2018-06-18T13:02:18.437Z,2.37
2018-06-18T13:04:53.891Z,3.85
2018-06-18T13:07:22.884Z,4.80
2018-06-18T13:09:51.547Z,2.10
2018-06-18T13:12:20.323Z,2.10
2018-06-18T13:14:48.966Z,1.77
2018-06-18T13:17:17.659Z,2.70
2018-06-18T13:19:46.314Z,2.12
2018-06-18T13:22:15.272Z,2.15
2018-06-18T13:24:44.312Z,2.60
2018-06-18T13:27:13.070Z,3.35
2018-06-18T13:29:41.851Z,1.62
2018-06-18T13:32:10.495Z,2.30
2018-06-18T13:34:43.390Z,1.52
2018-06-18T13:37:17.201Z,1.70
2018-06-18T13:39:51.088Z,2.33
2018-06-18T13:42:24.848Z,2.40
2018-06-18T13:44:58.767Z,2.33
2018-06-18T13:47:32.651Z,1.90
2018-06-18T13:50:01.668Z,2.40
2018-06-18T13:52:30.728Z,2.08
2018-06-18T13:54:59.795Z,2.30
2018-06-18T13:57:29.259Z,2.08
2018-06-18T13:59:58.237Z,1.90
2018-06-18T14:02:26.901Z,2.08
2018-06-18T14:04:55.895Z,2.00
2018-06-18T14:07:24.587Z,2.37
2018-06-18T14:09:53.599Z,2.08
2018-06-18T14:12:22.821Z,2.00
2018-06-18T14:14:52.222Z,2.25
2018-06-18T14:17:21.528Z,2.10
2018-06-18T14:19:55.421Z,2.35
2018-06-18T14:22:24.314Z,2.33
2018-06-18T14:24:53.835Z,1.82
2018-06-18T14:27:22.598Z,2.02
2018-06-18T14:29:56.645Z,2.35
2018-06-18T14:32:39.667Z,1.98
2018-06-18T14:35:13.638Z,1.80
2018-06-18T14:37:47.748Z,1.72
2018-06-18T14:40:18.314Z,1.98
2018-06-18T14:42:47.011Z,1.72
2018-06-18T14:45:15.623Z,1.87
2018-06-18T14:47:44.563Z,2.10
2018-06-18T14:50:13.251Z,2.02
2018-06-18T14:52:42.297Z,1.52
2018-06-18T14:55:12.107Z,2.08
2018-06-18T14:57:40.809Z,1.98
2018-06-18T15:00:19.704Z,2.30
2018-06-18T15:02:59.023Z,1.92
2018-06-18T15:05:31.550Z,1.70
2018-06-18T15:08:00.354Z,1.95
2018-06-18T15:10:34.150Z,2.05
2018-06-18T15:13:03.199Z,1.82
2018-06-18T15:15:37.032Z,2.40
2018-06-18T15:18:05.945Z,2.37
2018-06-18T15:20:34.807Z,2.37
2018-06-18T15:23:04.768Z,2.15
2018-06-18T15:25:35.869Z,1.80
2018-06-18T15:28:05.722Z,1.70
2018-06-18T15:30:34.504Z,1.72
2018-06-18T15:33:03.304Z,2.02
2018-06-18T15:35:32.400Z,1.50
2018-06-18T15:38:01.336Z,1.57
2018-06-18T15:40:30.202Z,1.90
2018-06-18T15:42:58.890Z,1.98
2018-06-18T15:45:27.636Z,1.92
2018-06-18T15:47:57.756Z,1.67
2018-06-18T15:50:26.452Z,2.10
2018-06-18T15:52:55.097Z,2.00
2018-06-18T15:55:23.897Z,1.90
2018-06-18T15:57:53.804Z,2.00
2018-06-18T16:00:22.643Z,2.70
2018-06-18T16:02:51.344Z,2.30
2018-06-18T16:05:20.116Z,1.90
2018-06-18T16:07:48.856Z,2.00
2018-06-18T16:10:17.590Z,2.02
2018-06-18T16:12:46.288Z,2.00
2018-06-18T16:15:15.079Z,2.42
2018-06-18T16:17:43.814Z,2.10
2018-06-18T16:20:12.581Z,1.90
2018-06-18T16:22:41.500Z,1.95
2018-06-18T16:25:10.278Z,2.65
2018-06-18T16:27:39.050Z,1.85
2018-06-18T16:30:07.868Z,1.90
2018-06-18T16:32:36.643Z,2.05
2018-06-18T16:35:05.440Z,1.87
2018-06-18T16:37:34.154Z,1.98
2018-06-18T16:40:02.924Z,2.20
2018-06-18T16:42:31.576Z,2.02
2018-06-18T16:45:00.276Z,2.37
2018-06-18T16:47:29.006Z,2.50
2018-06-18T16:49:57.648Z,2.33
2018-06-18T16:52:26.394Z,2.08
2018-06-18T16:54:55.147Z,1.98
2018-06-18T16:57:25.248Z,2.60
2018-06-18T16:59:53.973Z,1.90
2018-06-18T17:02:22.733Z,1.98
2018-06-18T17:04:51.551Z,2.77
2018-06-18T17:07:20.399Z,2.40
2018-06-18T17:09:49.130Z,2.70
2018-06-18T17:12:17.814Z,2.27
2018-06-18T17:14:46.553Z,2.12
2018-06-18T17:17:15.378Z,2.70
2018-06-18T17:19:44.099Z,2.27
2018-06-18T17:22:12.894Z,2.27
2018-06-18T17:24:41.732Z,3.15
2018-06-18T17:27:10.563Z,2.75
2018-06-18T17:29:39.353Z,2.50
2018-06-18T17:32:08.240Z,2.30
2018-06-18T17:34:37.022Z,2.17
2018-06-18T17:37:06.011Z,2.10
2018-06-18T17:39:34.943Z,2.08
2018-06-18T17:42:03.627Z,2.15
2018-06-18T17:44:32.264Z,1.90
2018-06-18T17:47:01.024Z,1.92
2018-06-18T17:49:30.005Z,2.10
2018-06-18T17:51:58.691Z,2.40
2018-06-18T17:54:27.495Z,2.33
2018-06-18T17:56:56.161Z,2.22
2018-06-18T17:59:24.995Z,2.45
2018-06-18T18:01:53.721Z,3.00
2018-06-18T18:04:22.502Z,2.40
2018-06-18T18:06:51.150Z,2.08
2018-06-18T18:09:20.142Z,4.05
2018-06-18T18:11:49.614Z,2.50
2018-06-18T18:14:18.386Z,4.33
2018-06-18T18:16:47.267Z,2.45
2018-06-18T18:19:15.988Z,2.47
2018-06-18T18:21:44.849Z,2.50
2018-06-18T18:24:13.541Z,3.00
2018-06-18T18:26:42.596Z,2.33
2018-06-18T18:29:11.227Z,2.40
2018-06-18T18:31:40.107Z,2.70
2018-06-18T18:34:08.872Z,3.20
2018-06-18T18:36:38.768Z,2.90
2018-06-18T18:39:09.531Z,2.97
2018-06-18T18:41:39.103Z,2.60
2018-06-18T18:44:08.069Z,2.93
2018-06-18T18:46:36.967Z,3.47
2018-06-18T18:49:05.717Z,2.80
2018-06-18T18:51:34.506Z,3.23
2018-06-18T18:54:03.316Z,3.20
2018-06-18T18:57:43.076Z,3.03
2018-06-18T19:00:11.984Z,2.87
2018-06-18T19:02:40.861Z,3.30
2018-06-18T19:05:17.600Z,3.83
2018-06-18T19:07:46.510Z,6.87
2018-06-18T19:10:27.254Z,3.07
2018-06-18T19:12:57.551Z,3.57
2018-06-18T19:15:26.600Z,2.87
2018-06-18T19:17:55.506Z,2.93
2018-06-18T19:20:29.111Z,3.20
2018-06-18T19:22:57.955Z,4.30
2018-06-18T19:25:26.685Z,6.27
2018-06-18T19:27:55.493Z,3.57
2018-06-18T19:30:24.298Z,3.60
2018-06-18T19:32:55.214Z,3.37
2018-06-18T19:35:24.052Z,3.10
2018-06-18T19:37:52.892Z,3.33
2018-06-18T19:40:21.528Z,3.07
2018-06-18T19:42:50.184Z,3.40
2018-06-18T19:45:20.478Z,3.00
2018-06-18T19:47:51.973Z,3.10
2018-06-18T19:50:20.711Z,3.30
2018-06-18T19:52:49.551Z,3.00
2018-06-18T19:55:22.273Z,3.50
2018-06-18T19:57:50.909Z,3.47
2018-06-18T20:00:19.927Z,3.63
2018-06-18T20:02:48.640Z,4.67
2018-06-18T20:05:17.316Z,27.50
2018-06-18T20:07:51.006Z,10.20
2018-06-18T20:10:19.884Z,6.67
2018-06-18T20:12:48.729Z,3.53
2018-06-18T20:15:17.559Z,3.30
2018-06-18T20:17:46.331Z,3.17
2018-06-18T20:20:15.626Z,3.23
2018-06-18T20:22:44.714Z,3.30
2018-06-18T20:25:13.939Z,3.30
2018-06-18T20:27:42.740Z,3.60
2018-06-18T20:30:12.013Z,3.07
2018-06-18T20:32:41.013Z,3.17
2018-06-18T20:35:16.924Z,3.17
2018-06-18T20:37:46.080Z,3.10
2018-06-18T20:40:15.081Z,3.50
2018-06-18T20:42:43.820Z,3.73
2018-06-18T20:45:12.561Z,3.00
2018-06-18T20:47:41.286Z,3.87
2018-06-18T20:50:10.268Z,3.87
2018-06-18T20:52:40.032Z,3.70
2018-06-18T20:55:09.126Z,3.63
2018-06-18T20:57:37.883Z,3.80
2018-06-18T21:00:07.171Z,3.63
2018-06-18T21:02:35.978Z,3.50
2018-06-18T21:05:04.818Z,3.53
2018-06-18T21:07:33.838Z,3.30
2018-06-18T21:10:02.730Z,3.20
2018-06-18T21:12:31.461Z,3.13
2018-06-18T21:15:01.139Z,3.37
2018-06-18T21:17:30.051Z,3.50
2018-06-18T21:19:59.011Z,3.33
2018-06-18T21:22:27.766Z,3.80
2018-06-18T21:24:56.606Z,4.00
2018-06-18T21:27:25.412Z,4.20
2018-06-18T21:29:54.203Z,4.90
2018-06-18T21:32:23.025Z,4.50
2018-06-18T21:34:51.776Z,4.93
2018-06-18T21:37:20.731Z,4.93
2018-06-18T21:39:49.555Z,4.30
2018-06-18T21:42:18.406Z,5.00
2018-06-18T21:45:07.924Z,5.93
2018-06-18T21:47:36.646Z,6.23
2018-06-18T21:50:05.767Z,20.60
2018-06-18T21:52:34.626Z,15.90
2018-06-18T21:55:03.668Z,10.97
2018-06-18T21:57:32.554Z,6.97
2018-06-18T22:00:01.228Z,6.70
2018-06-18T22:02:29.963Z,6.30
2018-06-18T22:04:59.043Z,6.20
2018-06-18T22:07:27.734Z,6.00
2018-06-18T22:09:56.749Z,6.17
2018-06-18T22:12:25.595Z,6.40
2018-06-18T22:14:54.403Z,6.10
2018-06-18T22:17:23.156Z,7.07
2018-06-18T22:19:51.972Z,6.23
2018-06-18T22:22:20.811Z,6.47
2018-06-18T22:24:49.580Z,6.77
2018-06-18T22:27:18.276Z,6.43
2018-06-18T22:29:47.082Z,6.67
2018-06-18T22:32:15.875Z,7.27
2018-06-18T22:34:44.776Z,7.07
2018-06-18T22:37:13.506Z,6.33
2018-06-18T22:39:42.399Z,6.63
2018-06-18T22:42:10.997Z,6.80
2018-06-18T22:44:39.673Z,6.37
2018-06-18T22:47:08.720Z,6.37
2018-06-18T22:49:37.454Z,6.17
2018-06-18T22:52:06.253Z,6.67
2018-06-18T22:54:34.888Z,6.87
2018-06-18T22:57:03.594Z,6.13
2018-06-18T22:59:32.501Z,6.93
2018-06-18T23:02:01.741Z,6.33
2018-06-18T23:04:30.649Z,6.57
2018-06-18T23:06:59.385Z,6.77
2018-06-18T23:09:28.152Z,6.63
2018-06-18T23:11:57.061Z,6.37
2018-06-18T23:14:26.395Z,6.33
2018-06-18T23:16:55.256Z,6.40
2018-06-18T23:19:24.029Z,6.13
2018-06-18T23:21:52.768Z,6.43
2018-06-18T23:24:21.435Z,5.60
2018-06-18T23:26:50.972Z,6.00
2018-06-18T23:29:20.435Z,6.00
2018-06-18T23:31:49.161Z,6.43
2018-06-18T23:34:17.871Z,6.13
2018-06-18T23:36:46.860Z,6.23
2018-06-18T23:39:15.628Z,5.80
2018-06-18T23:41:48.313Z,6.57
2018-06-18T23:44:17.049Z,7.23
2018-06-18T23:46:45.861Z,26.13
2018-06-18T23:49:14.722Z,9.60
2018-06-18T23:51:43.614Z,9.00
2018-06-18T23:54:12.387Z,6.40
2018-06-18T23:56:41.238Z,7.07
2018-06-18T23:59:10.553Z,6.27
